createdAt,value
2018-09-30T00:00:19.806Z,9.30
2018-09-30T00:02:48.611Z,9.30
2018-09-30T00:05:17.452Z,9.30
2018-09-30T00:07:46.374Z,9.20
2018-09-30T00:10:15.243Z,9.30
2018-09-30T00:12:44.011Z,9.20
2018-09-30T00:15:12.769Z,9.20
2018-09-30T00:17:41.615Z,9.20
2018-09-30T00:20:10.406Z,9.20
2018-09-30T00:22:39.275Z,9.20
2018-09-30T00:25:13.537Z,9.20
2018-09-30T00:27:42.343Z,9.20
2018-09-30T00:30:11.296Z,9.20
2018-09-30T00:32:40.124Z,9.20
2018-09-30T00:35:09.051Z,9.20
2018-09-30T00:37:37.806Z,9.20
2018-09-30T00:40:06.890Z,9.20
2018-09-30T00:42:35.639Z,9.10
2018-09-30T00:45:04.451Z,9.10
2018-09-30T00:47:33.174Z,9.10
2018-09-30T00:50:01.935Z,9.00
2018-09-30T00:52:30.623Z,9.00
2018-09-30T00:54:59.412Z,9.00
2018-09-30T00:57:28.192Z,9.00
2018-09-30T00:59:56.931Z,9.00
2018-09-30T01:02:25.614Z,8.90
2018-09-30T01:04:54.536Z,8.90
2018-09-30T01:07:23.326Z,8.90
2018-09-30T01:09:52.052Z,8.80
2018-09-30T01:12:20.828Z,8.90
2018-09-30T01:14:49.613Z,8.90
2018-09-30T01:17:18.443Z,8.80
2018-09-30T01:19:47.237Z,8.80
2018-09-30T01:22:16.052Z,8.80
2018-09-30T01:24:44.810Z,8.80
2018-09-30T01:27:13.592Z,8.70
2018-09-30T01:29:42.332Z,8.80
2018-09-30T01:32:15.437Z,8.80
2018-09-30T01:34:44.180Z,8.80
2018-09-30T01:37:12.929Z,8.80
2018-09-30T01:39:41.693Z,8.70
2018-09-30T01:42:10.442Z,8.60
2018-09-30T01:44:39.520Z,8.60
2018-09-30T01:47:08.303Z,8.60
2018-09-30T01:49:37.086Z,8.50
2018-09-30T01:52:16.865Z,8.50
2018-09-30T01:54:45.683Z,8.50
2018-09-30T01:57:14.454Z,8.50
2018-09-30T01:59:43.229Z,8.40
2018-09-30T02:02:11.941Z,8.30
2018-09-30T02:04:40.700Z,8.30
2018-09-30T02:07:09.550Z,8.30
2018-09-30T02:09:38.302Z,8.30
2018-09-30T02:12:07.165Z,8.20
2018-09-30T02:14:35.990Z,8.20
2018-09-30T02:17:04.783Z,8.20
2018-09-30T02:19:33.575Z,8.20
2018-09-30T02:22:02.384Z,8.30
2018-09-30T02:24:31.190Z,8.30
2018-09-30T02:26:59.910Z,8.30
2018-09-30T02:29:28.723Z,8.30
2018-09-30T02:31:57.512Z,8.30
2018-09-30T02:34:26.229Z,8.30
2018-09-30T02:36:54.987Z,8.30
2018-09-30T02:39:23.735Z,8.20
2018-09-30T02:41:52.480Z,8.20
2018-09-30T02:44:21.301Z,8.10
2018-09-30T02:46:50.025Z,8.10
2018-09-30T02:49:18.789Z,8.10
2018-09-30T02:51:47.620Z,8.10
2018-09-30T02:54:16.441Z,8.10
2018-09-30T02:56:45.184Z,8.00
2018-09-30T02:59:14.025Z,8.00
2018-09-30T03:01:45.703Z,8.00
2018-09-30T03:04:14.522Z,8.00
2018-09-30T03:07:47.306Z,8.00
2018-09-30T03:10:16.170Z,8.00
2018-09-30T03:12:45.012Z,8.00
2018-09-30T03:15:13.779Z,8.10
2018-09-30T03:17:42.597Z,8.20
2018-09-30T03:20:11.309Z,8.20
2018-09-30T03:22:40.107Z,8.30
2018-09-30T03:25:08.903Z,8.30
2018-09-30T03:27:37.656Z,8.30
2018-09-30T03:30:06.489Z,8.40
2018-09-30T03:32:35.226Z,8.40
2018-09-30T03:35:04.014Z,8.40
2018-09-30T03:37:32.714Z,8.40
2018-09-30T03:40:01.489Z,8.50
2018-09-30T03:42:30.246Z,8.50
2018-09-30T03:44:59.013Z,8.50
2018-09-30T03:47:27.778Z,8.60
2018-09-30T03:49:56.560Z,8.60
2018-09-30T03:52:25.267Z,8.60
2018-09-30T03:54:54.028Z,8.60
2018-09-30T03:57:22.720Z,8.60
2018-09-30T03:59:51.462Z,8.60
2018-09-30T04:02:20.449Z,8.60
2018-09-30T04:04:49.239Z,8.60
2018-09-30T04:07:18.029Z,8.60
2018-09-30T04:09:46.853Z,8.70
2018-09-30T04:12:15.590Z,8.70
2018-09-30T04:14:44.377Z,8.70
2018-09-30T04:17:13.119Z,8.70
2018-09-30T04:19:41.882Z,8.70
2018-09-30T04:22:10.670Z,8.70
2018-09-30T04:24:39.488Z,8.70
2018-09-30T04:27:08.235Z,8.70
2018-09-30T04:29:36.961Z,8.70
2018-09-30T04:32:05.795Z,8.60
2018-09-30T04:34:34.542Z,8.60
2018-09-30T04:37:03.367Z,8.70
2018-09-30T04:39:32.154Z,8.60
2018-09-30T04:42:00.937Z,8.60
2018-09-30T04:44:29.791Z,8.60
2018-09-30T04:46:58.516Z,8.60
2018-09-30T04:49:27.221Z,8.50
2018-09-30T04:51:55.932Z,8.60
2018-09-30T04:54:24.731Z,8.60
2018-09-30T04:56:53.468Z,8.50
2018-09-30T04:59:22.200Z,8.50
2018-09-30T05:01:50.942Z,8.50
2018-09-30T05:04:19.683Z,8.50
2018-09-30T05:06:48.419Z,8.40
2018-09-30T05:09:17.202Z,8.40
2018-09-30T05:11:45.935Z,8.40
2018-09-30T05:14:14.712Z,8.40
2018-09-30T05:16:43.502Z,8.30
2018-09-30T05:19:12.246Z,8.30
2018-09-30T05:21:40.985Z,8.20
2018-09-30T05:24:09.862Z,8.20
2018-09-30T05:26:38.651Z,8.20
2018-09-30T05:29:07.710Z,8.20
2018-09-30T05:31:36.510Z,8.20
2018-09-30T05:34:05.241Z,8.10
2018-09-30T05:36:34.012Z,8.10
2018-09-30T05:39:02.895Z,8.10
2018-09-30T05:41:31.618Z,8.00
2018-09-30T05:44:00.366Z,8.00
2018-09-30T05:46:29.134Z,8.10
2018-09-30T05:48:58.003Z,8.10
2018-09-30T05:51:26.699Z,8.10
2018-09-30T05:53:55.530Z,8.10
2018-09-30T05:56:24.334Z,8.10
2018-09-30T05:58:53.470Z,8.10
2018-09-30T06:01:22.282Z,8.10
2018-09-30T06:03:51.230Z,8.10
2018-09-30T06:06:19.974Z,8.10
2018-09-30T06:08:48.724Z,8.10
2018-09-30T06:11:17.480Z,8.10
2018-09-30T06:13:46.199Z,8.20
2018-09-30T06:16:15.050Z,8.20
2018-09-30T06:18:43.782Z,8.20
2018-09-30T06:21:12.576Z,8.20
2018-09-30T06:23:41.545Z,8.30
2018-09-30T06:26:10.305Z,8.30
2018-09-30T06:28:39.121Z,8.30
2018-09-30T06:31:07.977Z,8.30
2018-09-30T06:33:36.746Z,8.30
2018-09-30T06:36:05.481Z,8.30
2018-09-30T06:38:34.235Z,8.40
2018-09-30T06:41:02.954Z,8.40
2018-09-30T06:43:31.645Z,8.40
2018-09-30T06:46:00.467Z,8.40
2018-09-30T06:48:29.205Z,8.50
2018-09-30T06:50:58.085Z,8.50
2018-09-30T06:53:26.790Z,8.50
2018-09-30T06:55:55.533Z,8.50
2018-09-30T06:58:24.329Z,8.60
2018-09-30T07:00:53.039Z,8.70
2018-09-30T07:03:21.788Z,8.80
2018-09-30T07:05:50.574Z,8.80
2018-09-30T07:08:19.377Z,8.90
2018-09-30T07:10:48.300Z,8.90
2018-09-30T07:13:17.050Z,9.00
2018-09-30T07:15:45.917Z,9.00
2018-09-30T07:18:14.680Z,9.10
2018-09-30T07:20:43.429Z,9.10
2018-09-30T07:23:12.254Z,9.20
2018-09-30T07:25:41.044Z,9.30
2018-09-30T07:28:09.779Z,9.30
2018-09-30T07:30:38.589Z,9.40
2018-09-30T07:33:07.419Z,9.40
2018-09-30T07:35:36.136Z,9.50
2018-09-30T07:38:04.929Z,9.60
2018-09-30T07:40:33.671Z,9.60
2018-09-30T07:43:02.387Z,9.70
2018-09-30T07:45:31.164Z,9.80
2018-09-30T07:47:59.941Z,9.90
2018-09-30T07:50:28.693Z,10.00
2018-09-30T07:52:57.515Z,10.10
2018-09-30T07:55:26.234Z,10.10
2018-09-30T07:57:54.995Z,10.20
2018-09-30T08:00:23.945Z,10.30
2018-09-30T08:02:53.477Z,10.30
2018-09-30T08:05:22.292Z,10.40
2018-09-30T08:07:51.119Z,10.50
2018-09-30T08:10:19.860Z,10.60
2018-09-30T08:12:48.647Z,10.60
2018-09-30T08:15:17.472Z,10.80
2018-09-30T08:17:46.222Z,10.80
2018-09-30T08:20:21.724Z,10.90
2018-09-30T08:22:50.433Z,11.00
2018-09-30T08:25:19.248Z,11.10
2018-09-30T08:27:48.304Z,11.20
2018-09-30T08:30:17.107Z,11.20
2018-09-30T08:32:46.087Z,11.30
2018-09-30T08:35:14.951Z,11.30
2018-09-30T08:37:49.018Z,11.40
2018-09-30T08:40:22.891Z,11.50
2018-09-30T08:42:51.958Z,11.60
2018-09-30T08:45:20.822Z,11.70
2018-09-30T08:47:49.822Z,12.10
2018-09-30T08:50:18.613Z,12.60
2018-09-30T08:52:47.435Z,12.90
2018-09-30T08:55:16.381Z,13.10
2018-09-30T08:57:45.143Z,13.30
2018-09-30T09:00:13.932Z,13.30
2018-09-30T09:02:42.741Z,13.30
2018-09-30T09:05:11.483Z,13.50
2018-09-30T09:07:40.222Z,13.40
2018-09-30T09:10:09.012Z,13.40
2018-09-30T09:12:37.808Z,13.30
2018-09-30T09:15:07.449Z,13.20
2018-09-30T09:17:36.466Z,13.30
2018-09-30T09:20:05.717Z,13.60
2018-09-30T09:22:34.450Z,13.80
2018-09-30T09:25:03.789Z,13.90
2018-09-30T09:27:32.617Z,14.10
2018-09-30T09:30:09.954Z,14.40
2018-09-30T09:32:47.336Z,14.50
2018-09-30T09:35:17.279Z,14.50
2018-09-30T09:37:48.018Z,14.40
2018-09-30T09:40:20.515Z,14.20
2018-09-30T09:43:00.772Z,14.10
2018-09-30T09:45:31.437Z,14.00
2018-09-30T09:48:42.124Z,13.90
2018-09-30T09:51:12.236Z,13.90
2018-09-30T09:53:42.523Z,13.90
2018-09-30T09:56:13.517Z,14.00
2018-09-30T09:58:44.741Z,14.00
2018-09-30T10:01:14.589Z,14.00
2018-09-30T10:03:45.546Z,14.00
2018-09-30T10:06:16.120Z,14.10
2018-09-30T10:08:47.032Z,14.10
2018-09-30T10:11:17.774Z,14.20
2018-09-30T10:13:48.219Z,14.30
2018-09-30T10:16:19.719Z,14.40
2018-09-30T10:18:50.569Z,14.40
2018-09-30T10:21:21.382Z,14.40
2018-09-30T10:23:54.344Z,14.50
2018-09-30T10:26:25.924Z,14.60
2018-09-30T10:28:57.210Z,14.70
2018-09-30T10:31:27.992Z,14.70
2018-09-30T10:33:59.504Z,14.80
2018-09-30T10:36:30.073Z,14.80
2018-09-30T10:39:00.466Z,14.80
2018-09-30T10:41:31.330Z,14.90
2018-09-30T10:44:02.308Z,14.90
2018-09-30T10:46:33.633Z,15.00
2018-09-30T10:49:03.865Z,15.00
2018-09-30T10:51:34.042Z,15.10
2018-09-30T10:54:03.532Z,15.20
2018-09-30T10:56:33.841Z,15.30
2018-09-30T10:59:03.347Z,15.30
2018-09-30T11:01:33.921Z,15.40
2018-09-30T11:04:05.430Z,15.50
2018-09-30T11:06:36.664Z,15.60
2018-09-30T11:09:09.368Z,15.50
2018-09-30T11:11:39.828Z,15.50
2018-09-30T11:14:11.093Z,15.60
2018-09-30T11:16:42.128Z,15.80
2018-09-30T11:19:13.002Z,15.80
2018-09-30T11:21:44.729Z,15.90
2018-09-30T11:24:16.348Z,16.10
2018-09-30T11:26:46.939Z,16.40
2018-09-30T11:29:18.875Z,16.70
2018-09-30T11:31:49.333Z,16.80
2018-09-30T11:34:21.411Z,16.90
2018-09-30T11:36:52.431Z,17.10
2018-09-30T11:39:23.740Z,17.30
2018-09-30T11:41:53.714Z,17.50
2018-09-30T11:44:25.435Z,17.80
2018-09-30T11:46:56.893Z,17.90
2018-09-30T11:49:26.880Z,17.90
2018-09-30T11:51:57.471Z,17.60
2018-09-30T11:54:29.206Z,17.40
2018-09-30T11:57:00.009Z,17.30
2018-09-30T11:59:31.470Z,17.40
2018-09-30T12:02:02.721Z,17.40
2018-09-30T12:04:34.266Z,17.50
2018-09-30T12:07:05.107Z,17.30
2018-09-30T12:09:37.379Z,17.30
2018-09-30T12:12:07.720Z,17.50
2018-09-30T12:14:38.949Z,18.10
2018-09-30T12:17:09.154Z,18.30
2018-09-30T12:19:39.872Z,18.60
2018-09-30T12:22:11.491Z,19.00
2018-09-30T12:24:43.411Z,19.00
2018-09-30T12:27:14.760Z,18.60
2018-09-30T12:29:45.870Z,20.30
2018-09-30T12:32:16.088Z,20.20
2018-09-30T12:34:46.471Z,19.90
2018-09-30T12:37:18.093Z,21.60
2018-09-30T12:39:48.659Z,24.20
2018-09-30T12:42:19.048Z,25.10
2018-09-30T12:44:50.339Z,26.20
2018-09-30T12:47:25.013Z,24.70
2018-09-30T12:49:56.781Z,22.80
2018-09-30T12:52:27.028Z,21.30
2018-09-30T12:54:58.412Z,20.30
2018-09-30T12:57:28.787Z,21.10
2018-09-30T12:59:59.896Z,25.10
2018-09-30T13:02:32.410Z,28.90
2018-09-30T13:05:02.816Z,29.30
2018-09-30T13:07:33.401Z,27.50
2018-09-30T13:10:03.113Z,26.60
2018-09-30T13:12:34.361Z,26.20
2018-09-30T13:15:03.295Z,26.20
2018-09-30T13:17:32.049Z,26.20
2018-09-30T13:20:00.925Z,24.80
2018-09-30T13:22:29.772Z,23.10
2018-09-30T13:24:58.882Z,21.80
2018-09-30T13:27:27.739Z,20.90
2018-09-30T13:29:56.519Z,20.30
2018-09-30T13:32:25.459Z,20.30
2018-09-30T13:34:54.205Z,20.10
2018-09-30T13:37:23.404Z,20.50
2018-09-30T13:39:52.254Z,22.40
2018-09-30T13:42:21.049Z,24.10
2018-09-30T13:44:49.899Z,24.00
2018-09-30T13:47:18.820Z,23.10
2018-09-30T13:49:47.732Z,24.00
2018-09-30T13:52:18.550Z,24.40
2018-09-30T13:54:47.490Z,25.30
2018-09-30T13:57:17.563Z,27.30
2018-09-30T13:59:46.488Z,26.40
2018-09-30T14:02:15.300Z,24.50
2018-09-30T14:04:44.433Z,22.90
2018-09-30T14:07:13.432Z,21.90
2018-09-30T14:09:42.281Z,21.20
2018-09-30T14:12:11.083Z,20.70
2018-09-30T14:14:39.883Z,20.50
2018-09-30T14:17:08.746Z,20.30
2018-09-30T14:19:37.478Z,20.30
2018-09-30T14:22:06.576Z,20.30
2018-09-30T14:24:35.451Z,20.20
2018-09-30T14:27:04.548Z,20.00
2018-09-30T14:29:33.338Z,20.10
2018-09-30T14:32:02.273Z,20.40
2018-09-30T14:34:31.163Z,20.70
2018-09-30T14:36:59.968Z,20.80
2018-09-30T14:39:28.930Z,21.00
2018-09-30T14:41:57.883Z,20.90
2018-09-30T14:44:26.766Z,20.80
2018-09-30T14:46:55.587Z,20.60
2018-09-30T14:49:26.182Z,20.40
2018-09-30T14:51:55.011Z,20.20
2018-09-30T14:54:23.894Z,20.20
2018-09-30T14:56:52.779Z,20.10
2018-09-30T14:59:21.795Z,20.10
2018-09-30T15:01:50.586Z,20.00
2018-09-30T15:04:19.788Z,19.90
2018-09-30T15:06:49.215Z,19.80
2018-09-30T15:09:18.034Z,19.50
2018-09-30T15:11:46.906Z,19.30
2018-09-30T15:14:15.789Z,19.20
2018-09-30T15:16:44.598Z,19.20
2018-09-30T15:19:13.561Z,19.10
2018-09-30T15:21:42.392Z,19.10
2018-09-30T15:24:11.275Z,19.20
2018-09-30T15:26:40.158Z,19.10
2018-09-30T15:29:09.159Z,19.00
2018-09-30T15:31:38.064Z,18.90
2018-09-30T15:34:07.158Z,18.80
2018-09-30T15:36:36.526Z,18.60
2018-09-30T15:39:08.303Z,18.50
2018-09-30T15:41:37.090Z,18.40
2018-09-30T15:44:11.959Z,18.40
2018-09-30T15:46:42.918Z,18.30
2018-09-30T15:49:19.290Z,18.20
2018-09-30T15:51:51.766Z,18.20
2018-09-30T15:54:21.939Z,18.10
2018-09-30T15:56:51.509Z,18.00
2018-09-30T15:59:20.709Z,17.90
2018-09-30T16:01:50.289Z,17.90
2018-09-30T16:04:21.488Z,17.90
2018-09-30T16:06:50.628Z,17.80
2018-09-30T16:09:21.200Z,17.80
2018-09-30T16:11:50.562Z,17.70
2018-09-30T16:14:19.797Z,17.50
2018-09-30T16:16:49.781Z,17.50
2018-09-30T16:19:18.835Z,17.40
2018-09-30T16:21:47.869Z,17.50
2018-09-30T16:24:17.186Z,17.40
2018-09-30T16:26:46.223Z,17.40
2018-09-30T16:29:15.286Z,17.40
2018-09-30T16:31:44.225Z,17.40
2018-09-30T16:34:13.296Z,17.30
2018-09-30T16:36:42.294Z,17.30
2018-09-30T16:39:11.735Z,17.20
2018-09-30T16:41:43.758Z,17.10
2018-09-30T16:44:12.734Z,17.10
2018-09-30T16:46:41.632Z,17.00
2018-09-30T16:49:10.787Z,16.90
2018-09-30T16:51:39.814Z,16.80
2018-09-30T16:54:08.828Z,16.60
2018-09-30T16:56:37.955Z,16.50
2018-09-30T16:59:07.015Z,16.50
2018-09-30T17:01:36.157Z,16.40
2018-09-30T17:04:05.136Z,16.20
2018-09-30T17:06:34.185Z,16.20
2018-09-30T17:09:03.288Z,16.10
2018-09-30T17:11:32.257Z,16.00
2018-09-30T17:14:01.287Z,16.00
2018-09-30T17:16:30.420Z,15.90
2018-09-30T17:18:59.539Z,15.80
2018-09-30T17:21:28.483Z,15.80
2018-09-30T17:23:57.576Z,15.80
2018-09-30T17:26:26.529Z,15.70
2018-09-30T17:28:55.537Z,15.60
2018-09-30T17:31:24.455Z,15.50
2018-09-30T17:33:53.372Z,15.40
2018-09-30T17:36:22.339Z,15.40
2018-09-30T17:38:51.265Z,15.30
2018-09-30T17:41:20.209Z,15.20
2018-09-30T17:43:49.219Z,15.20
2018-09-30T17:46:18.339Z,15.20
2018-09-30T17:48:47.212Z,15.20
2018-09-30T17:51:16.285Z,15.20
2018-09-30T17:53:45.397Z,15.10
2018-09-30T17:56:15.189Z,15.10
2018-09-30T17:58:44.106Z,15.00
2018-09-30T18:01:13.180Z,15.00
2018-09-30T18:03:42.294Z,15.00
2018-09-30T18:06:11.266Z,15.00
2018-09-30T18:08:40.216Z,14.90
2018-09-30T18:11:09.358Z,14.90
2018-09-30T18:13:38.411Z,14.90
2018-09-30T18:16:17.251Z,14.90
2018-09-30T18:18:46.131Z,14.80
2018-09-30T18:21:15.111Z,14.80
2018-09-30T18:23:44.129Z,14.80
2018-09-30T18:26:34.470Z,14.80
2018-09-30T18:29:05.156Z,14.80
2018-09-30T18:31:34.157Z,14.80
2018-09-30T18:34:03.097Z,14.80
2018-09-30T18:36:32.095Z,14.80
2018-09-30T18:39:01.049Z,14.90
2018-09-30T18:41:30.306Z,14.90
2018-09-30T18:43:59.299Z,14.90
2018-09-30T18:46:28.262Z,14.90
2018-09-30T18:48:59.005Z,14.90
2018-09-30T18:51:28.979Z,14.90
2018-09-30T18:54:04.719Z,14.90
2018-09-30T18:56:33.792Z,14.90
2018-09-30T18:59:02.800Z,14.90
2018-09-30T19:01:31.799Z,14.90
2018-09-30T19:04:00.686Z,14.80
2018-09-30T19:06:29.724Z,14.80
2018-09-30T19:08:58.585Z,14.80
2018-09-30T19:11:27.554Z,14.80
2018-09-30T19:13:56.488Z,14.70
2018-09-30T19:16:25.449Z,14.70
2018-09-30T19:18:54.459Z,14.70
2018-09-30T19:21:23.404Z,14.70
2018-09-30T19:23:52.306Z,14.70
2018-09-30T19:26:21.374Z,14.70
2018-09-30T19:28:50.263Z,14.70
2018-09-30T19:31:19.319Z,14.60
2018-09-30T19:33:49.082Z,14.60
2018-09-30T19:36:18.079Z,14.60
2018-09-30T19:38:47.058Z,14.60
2018-09-30T19:41:16.056Z,14.60
2018-09-30T19:43:45.082Z,14.60
2018-09-30T19:46:13.947Z,14.60
2018-09-30T19:48:46.069Z,14.60
2018-09-30T19:51:15.263Z,14.50
2018-09-30T19:53:44.172Z,14.50
2018-09-30T19:56:13.784Z,14.40
2018-09-30T19:58:42.836Z,14.40
2018-09-30T20:01:13.210Z,14.40
2018-09-30T20:03:42.697Z,14.50
2018-09-30T20:06:13.676Z,14.40
2018-09-30T20:08:43.337Z,14.40
2018-09-30T20:11:13.845Z,14.40
2018-09-30T20:13:44.469Z,14.40
2018-09-30T20:16:15.767Z,14.40
2018-09-30T20:18:47.501Z,14.30
2018-09-30T20:21:18.655Z,14.30
2018-09-30T20:23:49.747Z,14.30
2018-09-30T20:26:20.332Z,14.30
2018-09-30T20:28:49.580Z,14.30
2018-09-30T20:31:18.594Z,14.20
2018-09-30T20:33:47.511Z,14.20
2018-09-30T20:36:16.374Z,14.20
2018-09-30T20:38:45.132Z,14.20
2018-09-30T20:41:16.344Z,14.20
2018-09-30T20:43:45.499Z,14.10
2018-09-30T20:46:14.423Z,14.10
2018-09-30T20:48:43.339Z,14.10
2018-09-30T20:51:12.405Z,14.10
2018-09-30T20:53:41.436Z,14.10
2018-09-30T20:56:10.437Z,14.10
2018-09-30T20:58:39.333Z,14.10
2018-09-30T21:01:08.474Z,14.10
2018-09-30T21:03:38.531Z,14.10
2018-09-30T21:06:34.723Z,14.00
2018-09-30T21:09:05.144Z,14.00
2018-09-30T21:11:33.963Z,14.00
2018-09-30T21:14:02.955Z,14.00
2018-09-30T21:16:31.859Z,14.00
2018-09-30T21:19:00.848Z,14.00
2018-09-30T21:21:29.727Z,14.00
2018-09-30T21:23:58.623Z,13.90
2018-09-30T21:26:27.525Z,13.90
2018-09-30T21:28:56.397Z,13.90
2018-09-30T21:31:25.257Z,14.00
2018-09-30T21:33:54.289Z,14.00
2018-09-30T21:36:23.148Z,14.00
2018-09-30T21:38:52.037Z,13.90
2018-09-30T21:41:20.997Z,13.90
2018-09-30T21:43:49.867Z,13.90
2018-09-30T21:46:18.826Z,13.90
2018-09-30T21:48:47.820Z,13.90
2018-09-30T21:51:16.957Z,13.90
2018-09-30T21:53:46.012Z,13.90
2018-09-30T21:56:15.041Z,13.90
2018-09-30T21:58:44.865Z,13.80
2018-09-30T22:01:13.900Z,13.80
2018-09-30T22:03:42.759Z,13.80
2018-09-30T22:06:11.654Z,13.80
2018-09-30T22:08:40.571Z,13.80
2018-09-30T22:11:09.435Z,13.80
2018-09-30T22:13:38.372Z,13.80
2018-09-30T22:16:07.395Z,13.80
2018-09-30T22:18:36.246Z,13.80
2018-09-30T22:21:05.097Z,13.80
2018-09-30T22:23:34.415Z,13.70
2018-09-30T22:26:03.352Z,13.70
2018-09-30T22:28:32.263Z,13.70
2018-09-30T22:31:01.097Z,13.60
2018-09-30T22:33:29.980Z,13.60
2018-09-30T22:35:58.886Z,13.60
2018-09-30T22:38:27.797Z,13.50
2018-09-30T22:40:56.820Z,13.50
2018-09-30T22:43:25.789Z,13.50
2018-09-30T22:45:54.723Z,13.50
2018-09-30T22:48:23.622Z,13.50
2018-09-30T22:50:52.642Z,13.50
2018-09-30T22:53:22.794Z,13.50
2018-09-30T22:55:51.741Z,13.50
2018-09-30T22:58:20.877Z,13.50
2018-09-30T23:00:49.792Z,13.50
2018-09-30T23:03:18.777Z,13.50
2018-09-30T23:05:47.723Z,13.40
2018-09-30T23:08:16.670Z,13.40
2018-09-30T23:10:45.572Z,13.40
2018-09-30T23:13:14.353Z,13.40
2018-09-30T23:15:43.545Z,13.30
2018-09-30T23:18:12.405Z,13.30
2018-09-30T23:20:41.275Z,13.30
2018-09-30T23:23:10.267Z,13.30
2018-09-30T23:25:39.092Z,13.30
2018-09-30T23:28:07.945Z,13.30
2018-09-30T23:30:36.859Z,13.30
2018-09-30T23:33:05.688Z,13.30
2018-09-30T23:35:34.504Z,13.30
2018-09-30T23:38:03.351Z,13.30
2018-09-30T23:40:32.170Z,13.20
2018-09-30T23:43:01.070Z,13.20
2018-09-30T23:45:29.849Z,13.20
2018-09-30T23:47:58.642Z,13.20
2018-09-30T23:50:27.511Z,13.20
2018-09-30T23:52:57.001Z,13.10
2018-09-30T23:55:25.807Z,13.10
2018-09-30T23:58:05.021Z,13.10
